1
0
mirror of https://gitea.com/gitea/act_runner synced 2026-05-01 01:27:56 +02:00

Commit Graph

  • 9f91fdd0eb chore(deps): bump Go version to 1.26 in Dockerfile and Makefile (#788) silverwind 2026-02-14 10:32:16 +00:00
  • 7a7a5d9051 chore(deps): bump Go version to 1.26.0 (#787) silverwind 2026-02-14 10:19:45 +00:00
  • c0f19d9a26 fix: Max parallel Support for Matrix Jobs and Remote Action Tests (#150) Pascal Zimmermann 2026-02-11 00:43:38 +00:00
  • 8505f73fe4 fix: fallback of localRepository cache being nil (#29) Christopher Homberger 2026-02-06 11:11:34 +00:00
  • 6c827eba95 fix: anchor cyclic detection (#30) Christopher Homberger 2026-02-02 20:43:49 +00:00
  • 13e0654fd7 fix: gitea release workflow (#22) ChristopherHX 2026-01-31 23:24:09 +00:00
  • 495185446f Fixed typo (#151) wrzooz 2026-01-22 08:09:32 +00:00
  • 90d11b8692 Remove duplicate assignment of DIST (#777) mkesper 2025-12-26 00:38:38 +00:00
  • c4b57fbcb2 chore(deps): upgrade dependencies (#775) Christopher Homberger 2025-12-20 23:35:15 +00:00
  • 0cdc6fd88b test: missing shell property in composite action (#20) Christopher Homberger 2025-12-19 16:25:23 +00:00
  • ce0890578a refactor: move getContainerActionPaths into step interface (#13) ChristopherHX 2025-12-19 16:24:48 +00:00
  • f2ca1d2927 fix more add check fix-sec Christopher Homberger 2025-12-18 23:58:37 +01:00
  • df016d4980 chore(deps): upgrade dependencies Christopher Homberger 2025-12-18 23:18:22 +01:00
  • ee2e0135d5 feat: implement case function (#16) ChristopherHX 2025-12-18 19:27:30 +00:00
  • 3a07d231a0 Fix yaml with prefixed newline broken setjob + yaml v4 (#144) Christopher Homberger 2025-12-09 02:28:56 +00:00
  • e6dbe2a1ca Bump gitea/act (#770) Zettat123 2025-12-02 22:38:31 +00:00
  • 5417d3ac67 Interpolate uses for remote reusable workflows (#145) Zettat123 2025-12-02 19:36:38 +00:00
  • 83cbf1f2b8 Port CI to Gitea.com (#1) Christopher Homberger 2025-11-27 14:57:23 +00:00
  • 2c1a559406 Bump version from 0.3.5 to 0.4.0 (#143) ChristopherHX 2025-11-27 14:19:30 +01:00
  • 5c84be1b5b build(deps): bump golang.org/x/crypto from 0.43.0 to 0.45.0 (#142) dependabot[bot] 2025-11-27 13:04:58 +00:00
  • 6c766cb3b5 build(deps): bump github.com/opencontainers/selinux (#141) dependabot[bot] 2025-11-27 13:56:24 +01:00
  • 774f316c8b fix(dockerfile): Pin docker dind images to version 28, as version 29 has breaking changes in the API that are currently causing problems with the act fork of Gitea (#769) Max P. 2025-11-25 14:40:27 +00:00
  • 823e9489d6 Fix some typos in internal/pkg/config/config.example.yaml (#764) DavidToneian 2025-11-19 18:16:45 +00:00
  • dc38bf1895 Fix URL to documentation of runner images (#765) DavidToneian 2025-11-19 18:16:08 +00:00
  • 96b866a3a8 chore: update config.example.yaml for https://gitea.com/gitea/act_runner/pulls/724 (#763) Akkuman 2025-11-18 07:18:38 +00:00
  • f56fd693ee Add run_attempt to context (#126) Zettat123 2025-11-14 20:14:23 +00:00
  • ab0f6c6172 build(deps): bump the dependencies group with 2 updates (#140) dependabot[bot] 2025-11-02 20:04:37 +01:00
  • e0727de02b build(deps): bump the dependencies group with 6 updates (#139) dependabot[bot] 2025-11-02 20:04:21 +01:00
  • 6c36ce9805 build(deps): bump github.com/go-viper/mapstructure/v2 (#138) dependabot[bot] 2025-10-25 11:03:04 +00:00
  • 3b11bac2ad ci: release binary for linux/loong64 (#756) WANG Xuerui 2025-10-21 17:42:08 +00:00
  • 47caafd037 Bump gitea/act (#753) Zettat123 2025-10-14 03:32:35 +00:00
  • 34f68b3c18 Support cloning actions and workflows from private repos (#123) Zettat123 2025-10-14 02:37:09 +00:00
  • 50e0509007 Do not implicitly mount /var/run/docker.sock (#751) ChristopherHX 2025-10-09 07:16:56 +00:00
  • 114e57f94e chore(docs): Mention YAML Anchor support (#130) ChristopherHX 2025-10-06 13:53:29 +02:00
  • 82dccc7820 Replace expressions engine (#133) ChristopherHX 2025-10-06 13:53:15 +02:00
  • ac6e4b7517 Support inputs context when parsing jobs (#143) Zettat123 2025-10-03 18:05:12 +00:00
  • 418c708bb0 build(deps): bump the dependencies group with 5 updates (#136) dependabot[bot] 2025-10-01 15:35:14 +02:00
  • 874bd724fe build(deps): bump the dependencies group with 7 updates (#135) dependabot[bot] 2025-10-01 15:34:59 +02:00
  • 9c2f3e9f70 Fix self referencing anchors should cause error (#132) ChristopherHX 2025-09-27 00:04:03 +02:00
  • 67f0e3d852 Update Version (#129) ChristopherHX 2025-09-13 15:55:02 +02:00
  • 79360e4ed1 fix: explode yaml anchors (#126) ChristopherHX 2025-09-13 15:46:46 +02:00
  • 0274911c8d build(deps): bump the dependencies group with 8 updates (#128) dependabot[bot] 2025-09-03 21:28:04 +02:00
  • b2dcaeb2ee build(deps): bump actions/checkout from 4 to 5 in the dependencies group (#127) dependabot[bot] 2025-09-03 21:27:53 +02:00
  • 8920c4a170 Timeout to wait for and optionally require docker always (#741) v0.2.13 Christopher Homberger 2025-08-28 17:28:08 +00:00
  • bbf9d7e90f feat: support github mirror (#716) Akkuman 2025-08-28 16:57:01 +00:00
  • 46f471a900 refac(workflow): use matrix to compile different docker images (#740) Daan Selen 2025-08-22 23:49:20 +00:00
  • aa28f8d99c feat(docker): add TZ env variable working (#738) DaanSelen 2025-08-21 23:56:32 +00:00
  • 6a7e18b124 Allow node24 actions (#737) Christopher Homberger 2025-08-21 17:47:26 +00:00
  • 91852faf93 refactor: simplify adding new node versions add node 24 (#140) Christopher Homberger 2025-08-21 16:04:08 +00:00
  • 2478a22d8c Update VERSION (#124) ChristopherHX 2025-08-04 17:08:08 +02:00
  • cd57d482c3 support yaml anchors (#65) ChristopherHX 2025-08-04 16:57:51 +02:00
  • 8ae335c273 build(deps): bump the dependencies group with 7 updates (#123) dependabot[bot] 2025-08-01 17:23:07 +02:00
  • 39509e9ad0 Support Simplified Concurrency (#139) ChristopherHX 2025-07-29 09:14:47 +00:00
  • 42ec8a5ab5 fix: Allow almost all node<number> variants in actions.runs (#120) ChristopherHX 2025-07-24 23:33:11 +02:00
  • aeb7c01c61 Bump Test image to bookworm (#121) ChristopherHX 2025-07-24 23:25:36 +02:00
  • 53329c46ff Add ubuntu-24.04 label to defaults. (#724) telackey 2025-07-22 14:47:30 +00:00
  • 338af29e5e build(deps): bump megalinter/megalinter in the dependencies group (#118) dependabot[bot] 2025-07-15 12:40:53 +02:00
  • ff8eada0d4 build(deps): bump the dependencies group with 5 updates (#119) dependabot[bot] 2025-07-15 12:40:37 +02:00
  • 6b1aea9c04 Upgrade github.com/go-git/go-git/v5 to v5.16.2 (#706) v0.2.12 Lunny Xiao 2025-06-11 17:59:35 +00:00
  • edec9a8f91 Add a way to specify vars in act_runner exec (#704) lautriva 2025-06-11 17:38:29 +00:00
  • 4c7216f69b fix: matrix expansion logic (#115) ChristopherHX 2025-06-08 13:23:33 +02:00
  • 3293d725a7 feat: add parallel flag (#114) ChristopherHX 2025-06-08 12:41:42 +02:00
  • f36df5592d feat: CustomExecutor Provide Custom Job Runner Implementation (#113) ChristopherHX 2025-06-08 11:41:38 +02:00
  • 6a9a447f86 Report errors by setting raw_output when it's error level (#645) Pablo Carranza 2025-06-05 17:53:13 +00:00
  • d5a1a09aa4 fix: GITHUB_ENV and GITHUB_OUTPUT allow larger lines (#112) ChristopherHX 2025-06-03 22:59:05 +02:00
  • 9d4a12f0b7 build(deps): bump the dependencies group with 2 updates (#111) dependabot[bot] 2025-06-01 16:14:58 +02:00
  • e6ba3086c3 chore(deps): Migrate docker api usage (#110) ChristopherHX 2025-06-01 15:53:07 +02:00
  • 1c2ac5e507 build(deps): bump the dependencies group with 5 updates (#109) dependabot[bot] 2025-06-01 15:35:17 +02:00
  • 61237a1bdd Update README.md (#108) ChristopherHX 2025-05-31 10:31:24 +02:00
  • 5ca0d3cb71 chore(deps): Update Workflow Schema (#107) ChristopherHX 2025-05-21 12:02:35 +02:00
  • b634fba677 feat: contextdata overlay api and more gh/gt instance flags (#105) ChristopherHX 2025-05-18 13:44:33 +02:00
  • 6440a419d2 fix: stability of docker cancel test (#106) ChristopherHX 2025-05-18 13:24:33 +02:00
  • 1dc7a4d269 feat: allow ctx overlay + case sensitive env ctx (#99) ChristopherHX 2025-05-18 11:35:05 +02:00
  • bb140f1a38 feat: log parsed command data in json logger (#103) ChristopherHX 2025-05-17 16:14:53 +02:00
  • 9924aea786 Evaluate run-name field for workflows (#137) badhezi 2025-05-12 17:17:50 +00:00
  • 5302c25feb Add environment variables for OIDC token service (#674) Jack Jackson 2025-05-08 01:58:31 +00:00
  • a616ed1a10 feat: register interactive with values from cli (#682) Christopher Homberger 2025-05-08 01:57:53 +00:00
  • f0b5aff3bb fix: invalid label NoInteractive exit code (#683) Christopher Homberger 2025-05-07 17:17:26 +00:00
  • 44b4736703 feat: docker env vars for ephemeral and once (#685) Christopher Homberger 2025-05-07 15:43:05 +00:00
  • 7c0b21a846 build(deps): bump megalinter/megalinter in the dependencies group (#101) dependabot[bot] 2025-05-03 09:21:39 +00:00
  • 268a69b6d1 fix: use moby/go-archive due to deprecation (#102) ChristopherHX 2025-05-03 11:12:48 +02:00
  • 4a17e5199a build(deps): bump the dependencies group with 5 updates (#100) dependabot[bot] 2025-05-03 10:59:48 +02:00
  • bb13ab4f84 feat: cache module add CreateHandler api (#98) ChristopherHX 2025-04-26 16:58:30 +02:00
  • 258de0fa37 fix: container cleanup error is not a job execution error (#97) ChristopherHX 2025-04-26 16:41:04 +02:00
  • 8536279ece feat: service container in host mode (#95) ChristopherHX 2025-04-26 16:28:53 +02:00
  • a3c8116dee fix: step container workdir and mounts (#93) ChristopherHX 2025-04-26 14:14:52 +02:00
  • eddc77f3e0 refactor: migrate container changes (#91) ChristopherHX 2025-04-26 13:28:18 +02:00
  • dfbb094199 feat: custom host env dir for api (#92) ChristopherHX 2025-04-26 12:55:45 +02:00
  • 0aca9b8144 fix: post step failure is job failure (#85) ChristopherHX 2025-04-26 00:32:55 +02:00
  • 8131645cdb build(deps): bump megalinter/megalinter (#89) dependabot[bot] 2025-04-25 22:52:13 +02:00
  • f2550c1971 fix: file name (#90) ChristopherHX 2025-04-25 22:47:02 +02:00
  • 76e7360ee2 build(deps): bump golang.org/x/net from 0.36.0 to 0.38.0 (#86) dependabot[bot] 2025-04-25 22:05:56 +02:00
  • fba76f10dd core(deps): bump golang-cilint to v2.0.2 (#83) ChristopherHX 2025-04-25 21:58:30 +02:00
  • 4be22e9b76 fix: use the happy path for workflow_call (#88) ChristopherHX 2025-04-25 19:56:07 +02:00
  • b3cd631d23 chore(ci): require ENABLE_PROMOTE for promote cron (#84) ChristopherHX 2025-04-02 13:01:13 +02:00
  • fe551a9d69 build(deps): bump the dependencies group with 4 updates (#81) dependabot[bot] 2025-04-01 20:34:24 +02:00
  • f6db2a26cc bumo VERSION (#77) ChristopherHX 2025-03-29 13:52:48 +01:00
  • a1935498a7 fix: tart backend stops VM to early (#76) ChristopherHX 2025-03-29 13:39:47 +01:00
  • fcf370fcd1 Update VERSION (#73) ChristopherHX 2025-03-29 12:28:13 +01:00
  • 8ffb782f4d chore: remove notices service (#72) ChristopherHX 2025-03-29 12:27:52 +01:00